Forside
METAR-TAF:

METAR-TAF

Lufthavne :

Sault Ste. Marie, Michigan, USA

Breddekreds: 46-15N, længdekreds: 084-28W, højde: 244 m

Aktuelle vejr

Denne rapport blev lavet for 20 minutter siden, kl. 02:47 UTC
Vind 5 kt fra sydvest
Temperatur 14°C
Fugtighed 100%
Tryk 1015 hPa
Sigt: 1.6 km
Brudte skyer i en højde af 300 ft
dis

METAR: KCIU 250247Z AUTO 22005KT 1SM BR BKN003 14/14 A2996 RMK AO2

Tid: 23:07 (03:07 UTC)


TAF: fraværende

Vejrobservationer og prognoser fra mere end 4000 lufthavne (METAR og TAF).

De gule og røde prikker repræsenterer de meteorologiske stationer.

Flyt musen over at se navnet på stationen.

Så klik over at se vejr observationer og prognoser.

At skifte det kort: Klik på de grønne knapper med et sort kors for at zoome ind; på den grønne knap med en bindestreg for at zoome ud; eller på de grønne pile for tilstødende kort.


METAR-TAF: